createdAt,value
2019-05-10T00:00:16.330Z,86.36
2019-05-10T00:01:16.273Z,86.16
2019-05-10T00:02:16.256Z,86.83
2019-05-10T00:03:16.205Z,86.51
2019-05-10T00:04:16.166Z,86.93
2019-05-10T00:05:16.141Z,86.83
2019-05-10T00:06:16.107Z,86.74
2019-05-10T00:07:16.073Z,87.79
2019-05-10T00:08:16.038Z,87.02
2019-05-10T00:09:15.997Z,87.69
2019-05-10T00:10:15.966Z,86.26
2019-05-10T00:11:15.933Z,86.16
2019-05-10T00:12:15.898Z,88.26
2019-05-10T00:13:15.867Z,87.31
2019-05-10T00:14:15.823Z,87.02
2019-05-10T00:15:15.794Z,86.65
2019-05-10T00:16:15.764Z,87.88
2019-05-10T00:17:15.718Z,86.93
2019-05-10T00:18:15.698Z,87.50
2019-05-10T00:19:15.653Z,87.02
2019-05-10T00:20:15.624Z,86.83
2019-05-10T00:21:15.593Z,85.97
2019-05-10T00:22:15.553Z,86.55
2019-05-10T00:23:15.518Z,87.12
2019-05-10T00:24:15.484Z,87.31
2019-05-10T00:25:15.456Z,87.79
2019-05-10T00:26:15.416Z,88.36
2019-05-10T00:27:15.392Z,86.74
2019-05-10T00:28:15.352Z,87.88
2019-05-10T00:29:15.312Z,87.12
2019-05-10T00:30:15.279Z,86.93
2019-05-10T00:31:15.254Z,86.65
2019-05-10T00:32:15.209Z,87.79
2019-05-10T00:33:15.178Z,87.12
2019-05-10T00:34:15.140Z,87.12
2019-05-10T00:35:15.108Z,87.12
2019-05-10T00:36:15.074Z,88.07
2019-05-10T00:37:15.054Z,87.02
2019-05-10T00:38:15.016Z,87.79
2019-05-10T00:39:14.974Z,87.69
2019-05-10T00:40:14.933Z,87.31
2019-05-10T00:41:14.913Z,87.21
2019-05-10T00:42:14.874Z,87.60
2019-05-10T00:43:14.844Z,87.88
2019-05-10T00:44:14.804Z,87.98
2019-05-10T00:45:14.773Z,87.31
2019-05-10T00:46:14.744Z,86.36
2019-05-10T00:47:14.710Z,87.50
2019-05-10T00:48:14.702Z,87.40
2019-05-10T00:49:14.636Z,87.60
2019-05-10T00:50:14.599Z,88.26
2019-05-10T00:51:14.568Z,87.02
2019-05-10T00:52:14.531Z,87.31
2019-05-10T00:53:14.499Z,87.40
2019-05-10T00:54:14.460Z,87.02
2019-05-10T00:55:18.891Z,87.12
2019-05-10T00:56:14.396Z,86.83
2019-05-10T00:57:14.356Z,87.98
2019-05-10T00:58:14.325Z,86.98
2019-05-10T00:59:14.289Z,87.02
2019-05-10T01:00:14.252Z,87.31
2019-05-10T01:01:14.220Z,87.88
2019-05-10T01:02:14.185Z,87.69
2019-05-10T01:03:14.163Z,87.69
2019-05-10T01:04:14.118Z,87.02
2019-05-10T01:05:14.087Z,88.64
2019-05-10T01:06:14.059Z,87.31
2019-05-10T01:07:14.020Z,88.26
2019-05-10T01:08:13.991Z,87.02
2019-05-10T01:09:13.951Z,87.21
2019-05-10T01:10:13.921Z,88.07
2019-05-10T01:11:13.893Z,87.98
2019-05-10T01:12:13.847Z,86.83
2019-05-10T01:13:13.810Z,86.74
2019-05-10T01:14:13.781Z,87.02
2019-05-10T01:15:13.746Z,88.74
2019-05-10T01:16:13.715Z,87.74
2019-05-10T01:17:13.686Z,87.21
2019-05-10T01:18:13.647Z,87.31
2019-05-10T01:19:13.612Z,87.12
2019-05-10T01:20:13.577Z,87.79
2019-05-10T01:21:13.538Z,87.12
2019-05-10T01:22:13.506Z,88.70
2019-05-10T01:23:13.478Z,87.55
2019-05-10T01:24:13.440Z,87.69
2019-05-10T01:25:13.407Z,87.02
2019-05-10T01:26:13.367Z,88.64
2019-05-10T01:27:13.339Z,87.31
2019-05-10T01:28:13.311Z,86.83
2019-05-10T01:29:13.277Z,85.97
2019-05-10T01:30:13.227Z,87.02
2019-05-10T01:31:13.197Z,86.83
2019-05-10T01:32:13.166Z,87.40
2019-05-10T01:33:13.133Z,88.17
2019-05-10T01:34:13.092Z,87.21
2019-05-10T01:35:13.088Z,87.36
2019-05-10T01:36:13.022Z,87.65
2019-05-10T01:37:12.992Z,87.36
2019-05-10T01:38:12.979Z,86.88
2019-05-10T01:39:12.930Z,86.83
2019-05-10T01:40:12.894Z,87.40
2019-05-10T01:41:12.851Z,86.83
2019-05-10T01:42:12.832Z,88.31
2019-05-10T01:43:12.787Z,88.03
2019-05-10T01:44:12.774Z,86.98
2019-05-10T01:45:12.721Z,87.07
2019-05-10T01:46:12.691Z,87.65
2019-05-10T01:47:12.650Z,86.93
2019-05-10T01:48:12.623Z,88.07
2019-05-10T01:49:12.593Z,87.79
2019-05-10T01:50:12.559Z,87.02
2019-05-10T01:51:12.518Z,87.12
2019-05-10T01:52:12.488Z,88.07
2019-05-10T01:53:12.450Z,88.31
2019-05-10T01:54:12.414Z,87.21
2019-05-10T01:55:12.378Z,88.03
2019-05-10T01:56:12.344Z,87.88
2019-05-10T01:57:12.314Z,87.50
2019-05-10T01:58:12.273Z,86.93
2019-05-10T01:59:12.254Z,87.79
2019-05-10T02:00:12.206Z,87.60
2019-05-10T02:01:12.174Z,87.60
2019-05-10T02:02:12.139Z,87.60
2019-05-10T02:03:12.114Z,88.36
2019-05-10T02:04:12.075Z,87.40
2019-05-10T02:05:12.039Z,87.88
2019-05-10T02:06:12.005Z,87.12
2019-05-10T02:07:11.964Z,88.07
2019-05-10T02:08:11.931Z,87.84
2019-05-10T02:09:11.901Z,87.07
2019-05-10T02:10:11.873Z,86.88
2019-05-10T02:11:11.831Z,87.27
2019-05-10T02:12:11.796Z,87.55
2019-05-10T02:13:11.775Z,87.74
2019-05-10T02:14:11.748Z,87.46
2019-05-10T02:15:11.704Z,86.98
2019-05-10T02:16:11.672Z,86.69
2019-05-10T02:17:11.626Z,87.36
2019-05-10T02:18:11.612Z,87.36
2019-05-10T02:19:11.564Z,86.69
2019-05-10T02:20:11.539Z,87.65
2019-05-10T02:21:11.490Z,87.74
2019-05-10T02:22:11.461Z,87.27
2019-05-10T02:23:11.429Z,87.55
2019-05-10T02:24:11.389Z,87.36
2019-05-10T02:25:11.356Z,86.98
2019-05-10T02:26:11.321Z,87.65
2019-05-10T02:27:11.285Z,87.65
2019-05-10T02:28:11.252Z,87.74
2019-05-10T02:29:11.214Z,87.36
2019-05-10T02:30:11.413Z,87.07
2019-05-10T02:31:11.150Z,86.88
2019-05-10T02:32:11.115Z,88.03
2019-05-10T02:33:11.091Z,87.55
2019-05-10T02:34:11.057Z,87.65
2019-05-10T02:35:11.015Z,87.84
2019-05-10T02:36:10.996Z,87.84
2019-05-10T02:37:11.061Z,87.27
2019-05-10T02:38:10.908Z,87.84
2019-05-10T02:39:10.883Z,87.84
2019-05-10T02:40:10.856Z,87.46
2019-05-10T02:41:10.820Z,86.88
2019-05-10T02:42:19.430Z,87.65
2019-05-10T02:44:15.201Z,87.27
2019-05-10T02:45:15.147Z,88.22
2019-05-10T02:46:15.107Z,86.79
2019-05-10T02:47:15.087Z,87.55
2019-05-10T02:48:15.047Z,87.17
2019-05-10T02:49:15.011Z,86.79
2019-05-10T02:50:14.977Z,87.02
2019-05-10T02:51:14.942Z,87.74
2019-05-10T02:52:14.913Z,87.07
2019-05-10T02:53:14.878Z,86.88
2019-05-10T02:54:14.846Z,87.65
2019-05-10T02:55:14.797Z,87.07
2019-05-10T02:56:29.572Z,87.07
2019-05-10T02:57:14.733Z,87.07
2019-05-10T02:58:15.479Z,87.07
2019-05-10T02:59:14.672Z,87.65
2019-05-10T03:00:14.632Z,86.88
2019-05-10T03:01:14.598Z,87.07
2019-05-10T03:02:14.565Z,87.27
2019-05-10T03:03:14.533Z,87.07
2019-05-10T03:04:14.515Z,87.17
2019-05-10T03:05:14.465Z,87.65
2019-05-10T03:06:14.433Z,86.93
2019-05-10T03:07:14.390Z,87.74
2019-05-10T03:08:14.364Z,87.46
2019-05-10T03:09:14.333Z,87.27
2019-05-10T03:10:14.303Z,87.07
2019-05-10T03:11:14.251Z,87.17
2019-05-10T03:12:14.218Z,87.74
2019-05-10T03:13:14.188Z,86.88
2019-05-10T03:14:14.214Z,87.55
2019-05-10T03:15:14.131Z,87.07
2019-05-10T03:16:14.084Z,86.79
2019-05-10T03:17:14.052Z,87.84
2019-05-10T03:18:14.015Z,87.07
2019-05-10T03:19:13.983Z,87.27
2019-05-10T03:20:13.953Z,87.46
2019-05-10T03:21:13.919Z,87.55
2019-05-10T03:22:13.875Z,86.79
2019-05-10T03:23:13.835Z,86.98
2019-05-10T03:24:13.807Z,87.07
2019-05-10T03:25:13.794Z,86.88
2019-05-10T03:26:13.737Z,86.88
2019-05-10T03:27:13.708Z,87.07
2019-05-10T03:28:13.676Z,86.88
2019-05-10T03:29:13.639Z,86.60
2019-05-10T03:30:13.660Z,86.88
2019-05-10T03:31:13.566Z,88.12
2019-05-10T03:32:13.532Z,87.07
2019-05-10T03:33:13.503Z,87.07
2019-05-10T03:34:13.470Z,86.69
2019-05-10T03:35:13.516Z,86.60
2019-05-10T03:36:13.399Z,87.65
2019-05-10T03:37:13.372Z,86.60
2019-05-10T03:38:13.334Z,87.07
2019-05-10T03:39:13.300Z,87.65
2019-05-10T03:40:13.262Z,87.07
2019-05-10T03:41:13.238Z,86.88
2019-05-10T03:42:13.199Z,86.98
2019-05-10T03:43:13.162Z,87.07
2019-05-10T03:44:13.125Z,87.07
2019-05-10T03:45:13.092Z,87.27
2019-05-10T03:46:13.058Z,87.07
2019-05-10T03:47:13.025Z,87.65
2019-05-10T03:48:12.985Z,87.55
2019-05-10T03:49:12.956Z,86.88
2019-05-10T03:50:12.920Z,87.07
2019-05-10T03:51:12.898Z,87.07
2019-05-10T03:52:12.845Z,86.79
2019-05-10T03:53:12.820Z,86.98
2019-05-10T03:54:12.772Z,87.07
2019-05-10T03:55:12.761Z,87.21
2019-05-10T03:56:12.726Z,87.60
2019-05-10T03:57:14.520Z,86.88
2019-05-10T03:58:12.646Z,87.55
2019-05-10T03:59:12.599Z,86.88
2019-05-10T04:00:12.577Z,86.60
2019-05-10T04:01:12.546Z,87.07
2019-05-10T04:02:12.511Z,87.07
2019-05-10T04:03:12.467Z,86.98
2019-05-10T04:04:12.433Z,87.17
2019-05-10T04:05:12.417Z,87.36
2019-05-10T04:06:12.371Z,87.07
2019-05-10T04:07:12.341Z,87.36
2019-05-10T04:08:12.311Z,87.27
2019-05-10T04:09:12.268Z,86.98
2019-05-10T04:10:12.233Z,87.17
2019-05-10T04:11:12.192Z,86.88
2019-05-10T04:12:12.159Z,86.98
2019-05-10T04:13:12.137Z,86.79
2019-05-10T04:14:12.088Z,86.41
2019-05-10T04:15:12.058Z,87.36
2019-05-10T04:16:12.033Z,86.88
2019-05-10T04:17:11.994Z,86.41
2019-05-10T04:18:11.962Z,86.98
2019-05-10T04:19:11.918Z,86.88
2019-05-10T04:20:11.880Z,86.88
2019-05-10T04:21:11.849Z,86.79
2019-05-10T04:22:11.826Z,86.41
2019-05-10T04:23:11.783Z,86.79
2019-05-10T04:24:11.758Z,86.69
2019-05-10T04:25:11.718Z,86.79
2019-05-10T04:26:11.681Z,86.79
2019-05-10T04:27:30.241Z,86.88
2019-05-10T04:28:11.620Z,86.79
2019-05-10T04:29:11.594Z,86.69
2019-05-10T04:30:11.545Z,86.60
2019-05-10T04:31:11.516Z,86.69
2019-05-10T04:32:11.482Z,86.69
2019-05-10T04:33:11.439Z,87.17
2019-05-10T04:34:11.403Z,86.79
2019-05-10T04:35:11.374Z,86.79
2019-05-10T04:36:12.633Z,86.51
2019-05-10T04:37:11.311Z,86.98
2019-05-10T04:38:11.278Z,86.98
2019-05-10T04:39:11.245Z,86.32
2019-05-10T04:40:11.206Z,86.98
2019-05-10T04:41:11.163Z,86.88
2019-05-10T04:42:11.146Z,86.51
2019-05-10T04:43:11.098Z,86.60
2019-05-10T04:44:11.147Z,86.60
2019-05-10T04:45:11.038Z,87.07
2019-05-10T04:46:11.005Z,86.88
2019-05-10T04:47:10.966Z,86.22
2019-05-10T04:48:10.925Z,86.88
2019-05-10T04:49:10.901Z,86.98
2019-05-10T04:50:10.900Z,86.41
2019-05-10T04:51:10.825Z,86.60
2019-05-10T04:52:10.792Z,86.69
2019-05-10T04:53:10.754Z,86.60
2019-05-10T04:54:10.721Z,86.60
2019-05-10T04:55:10.694Z,86.88
2019-05-10T04:56:10.667Z,86.51
2019-05-10T04:57:10.632Z,87.27
2019-05-10T04:58:10.583Z,86.12
2019-05-10T04:59:10.543Z,86.60
2019-05-10T05:00:10.531Z,86.69
2019-05-10T05:01:10.494Z,87.17
2019-05-10T05:02:10.460Z,86.60
2019-05-10T05:03:10.415Z,86.79
2019-05-10T05:04:10.381Z,87.17
2019-05-10T05:05:10.345Z,86.51
2019-05-10T05:06:10.324Z,86.69
2019-05-10T05:07:10.270Z,86.26
2019-05-10T05:08:10.268Z,87.65
2019-05-10T05:09:10.209Z,85.93
2019-05-10T05:10:10.169Z,86.98
2019-05-10T05:11:10.138Z,86.51
2019-05-10T05:12:10.109Z,85.93
2019-05-10T05:13:10.074Z,86.60
2019-05-10T05:14:10.035Z,86.69
2019-05-10T05:15:10.001Z,86.88
2019-05-10T05:16:09.966Z,86.51
2019-05-10T05:17:09.939Z,86.32
2019-05-10T05:18:09.905Z,86.60
2019-05-10T05:19:09.869Z,87.17
2019-05-10T05:20:09.832Z,87.07
2019-05-10T05:21:09.795Z,86.41
2019-05-10T05:22:09.760Z,86.98
2019-05-10T05:23:09.720Z,86.74
2019-05-10T05:24:09.688Z,86.16
2019-05-10T05:25:09.657Z,86.74
2019-05-10T05:26:09.632Z,86.83
2019-05-10T05:27:09.598Z,86.45
2019-05-10T05:28:09.558Z,85.69
2019-05-10T05:29:09.521Z,85.50
2019-05-10T05:30:09.487Z,86.26
2019-05-10T05:31:09.452Z,84.92
2019-05-10T05:32:13.109Z,86.69
2019-05-10T05:33:09.392Z,84.92
2019-05-10T05:34:09.352Z,85.64
2019-05-10T05:35:09.315Z,85.93
2019-05-10T05:36:09.278Z,85.88
2019-05-10T05:37:09.246Z,85.50
2019-05-10T05:38:09.212Z,86.16
2019-05-10T05:39:09.182Z,86.32
2019-05-10T05:40:09.152Z,86.07
2019-05-10T05:41:09.114Z,85.84
2019-05-10T05:42:09.223Z,86.07
2019-05-10T05:43:09.898Z,86.45
2019-05-10T05:44:09.007Z,86.16
2019-05-10T05:45:08.982Z,86.65
2019-05-10T05:46:08.943Z,86.03
2019-05-10T05:47:08.905Z,86.69
2019-05-10T05:48:08.861Z,85.74
2019-05-10T05:49:08.836Z,85.88
2019-05-10T05:50:08.807Z,85.88
2019-05-10T05:51:08.770Z,85.97
2019-05-10T05:52:08.818Z,86.45
2019-05-10T05:53:08.711Z,86.41
2019-05-10T05:54:08.716Z,86.07
2019-05-10T05:55:08.639Z,85.46
2019-05-10T05:56:12.843Z,86.22
2019-05-10T05:57:08.567Z,86.45
2019-05-10T05:58:24.086Z,86.45
2019-05-10T05:59:09.092Z,85.88
2019-05-10T06:00:08.459Z,86.16
2019-05-10T06:01:08.433Z,86.36
2019-05-10T06:02:09.563Z,85.93
2019-05-10T06:03:08.357Z,86.07
2019-05-10T06:04:12.510Z,86.16
2019-05-10T06:05:08.295Z,86.36
2019-05-10T06:06:21.245Z,86.16
2019-05-10T06:07:08.214Z,86.07
2019-05-10T06:08:21.775Z,85.50
2019-05-10T06:09:08.159Z,87.21
2019-05-10T06:10:10.009Z,86.36
2019-05-10T06:11:09.230Z,86.36
2019-05-10T06:12:12.615Z,85.41
2019-05-10T06:13:08.019Z,85.31
2019-05-10T06:14:10.909Z,85.12
2019-05-10T06:15:07.944Z,85.02
2019-05-10T06:16:12.752Z,86.26
2019-05-10T06:17:07.888Z,86.16
2019-05-10T06:18:09.800Z,85.31
2019-05-10T06:19:07.825Z,85.78
2019-05-10T06:20:07.898Z,85.12
2019-05-10T06:21:07.748Z,85.50
2019-05-10T06:22:07.711Z,85.78
2019-05-10T06:23:07.679Z,84.92
2019-05-10T06:24:13.608Z,86.16
2019-05-10T06:25:07.625Z,85.97
2019-05-10T06:26:07.690Z,86.26
2019-05-10T06:27:07.546Z,85.12
2019-05-10T06:28:25.056Z,86.36
2019-05-10T06:29:16.249Z,85.41
2019-05-10T06:30:07.435Z,85.31
2019-05-10T06:31:07.392Z,86.07
2019-05-10T06:32:07.371Z,85.97
2019-05-10T06:33:12.656Z,85.69
2019-05-10T06:34:07.301Z,85.02
2019-05-10T06:35:07.268Z,84.83
2019-05-10T06:36:07.239Z,86.07
2019-05-10T06:37:07.214Z,85.31
2019-05-10T06:38:07.171Z,85.31
2019-05-10T06:39:07.132Z,85.50
2019-05-10T06:40:07.112Z,85.25
2019-05-10T06:41:10.174Z,85.41
2019-05-10T06:42:07.045Z,84.97
2019-05-10T06:43:12.909Z,85.12
2019-05-10T06:44:06.973Z,85.88
2019-05-10T06:45:14.390Z,84.83
2019-05-10T06:46:06.897Z,85.31
2019-05-10T06:47:08.421Z,85.69
2019-05-10T06:48:06.829Z,86.16
2019-05-10T06:49:10.716Z,85.97
2019-05-10T06:50:06.767Z,86.07
2019-05-10T06:51:09.762Z,85.31
2019-05-10T06:52:06.712Z,85.35
2019-05-10T06:54:06.637Z,85.12
2019-05-10T06:55:06.621Z,85.31
2019-05-10T06:56:06.579Z,84.78
2019-05-10T06:57:11.330Z,84.26
2019-05-10T06:58:06.491Z,84.45
2019-05-10T06:59:13.416Z,84.45
2019-05-10T07:00:27.437Z,84.30
2019-05-10T07:01:06.395Z,84.11
2019-05-10T07:02:06.362Z,83.69
2019-05-10T07:03:06.337Z,83.12
2019-05-10T07:04:06.289Z,83.12
2019-05-10T07:05:06.262Z,83.40
2019-05-10T07:06:27.229Z,83.40
2019-05-10T07:07:10.379Z,83.12
2019-05-10T07:08:15.023Z,82.73
2019-05-10T07:09:06.133Z,81.30
2019-05-10T07:10:15.849Z,81.68
2019-05-10T07:11:06.072Z,81.30
2019-05-10T07:12:30.101Z,81.68
2019-05-10T07:13:06.738Z,81.97
2019-05-10T07:14:05.968Z,81.59
2019-05-10T07:15:05.995Z,79.74
2019-05-10T07:16:05.901Z,80.98
2019-05-10T07:17:05.863Z,80.50
2019-05-10T07:18:26.821Z,79.02
2019-05-10T07:19:05.784Z,79.93
2019-05-10T07:20:05.755Z,79.55
2019-05-10T07:21:06.868Z,80.12
2019-05-10T07:22:05.697Z,79.64
2019-05-10T07:23:06.668Z,79.93
2019-05-10T07:24:27.096Z,79.64
2019-05-10T07:25:07.485Z,79.07
2019-05-10T07:26:05.554Z,79.74
2019-05-10T07:27:05.860Z,78.59
2019-05-10T07:28:09.549Z,77.74
2019-05-10T07:29:05.461Z,78.50
2019-05-10T07:30:26.419Z,77.74
2019-05-10T07:31:05.379Z,76.79
2019-05-10T07:32:05.349Z,76.50
2019-05-10T07:33:05.308Z,77.26
2019-05-10T07:34:09.627Z,77.45
2019-05-10T07:35:05.239Z,76.69
2019-05-10T07:36:30.535Z,77.36
2019-05-10T07:37:05.174Z,76.31
2019-05-10T07:38:05.142Z,77.93
2019-05-10T07:39:08.243Z,76.79
2019-05-10T07:40:05.111Z,76.88
2019-05-10T07:41:05.047Z,77.26
2019-05-10T07:42:25.999Z,75.84
2019-05-10T07:43:04.978Z,75.93
2019-05-10T07:44:07.816Z,75.45
2019-05-10T07:45:04.900Z,75.26
2019-05-10T07:46:06.784Z,75.26
2019-05-10T07:47:04.843Z,74.21
2019-05-10T07:48:25.819Z,73.83
2019-05-10T07:49:04.773Z,75.26
2019-05-10T07:50:09.932Z,73.93
2019-05-10T07:51:04.689Z,74.40
2019-05-10T07:52:04.687Z,73.93
2019-05-10T07:53:04.645Z,74.12
2019-05-10T07:54:25.602Z,74.12
2019-05-10T07:55:04.560Z,73.36
2019-05-10T07:56:06.065Z,73.65
2019-05-10T07:57:04.495Z,73.83
2019-05-10T07:58:05.476Z,72.69
2019-05-10T07:59:04.435Z,72.69
2019-05-10T08:00:25.614Z,72.88
2019-05-10T08:01:04.361Z,73.45
2019-05-10T08:02:06.009Z,72.88
2019-05-10T08:03:13.225Z,72.41
2019-05-10T08:04:04.258Z,73.07
2019-05-10T08:05:04.977Z,74.12
2019-05-10T08:06:25.189Z,72.69
2019-05-10T08:07:07.338Z,72.60
2019-05-10T08:08:04.120Z,70.97
2019-05-10T08:09:06.415Z,72.78
2019-05-10T08:10:04.819Z,72.21
2019-05-10T08:11:04.007Z,71.26
2019-05-10T08:12:24.979Z,72.12
2019-05-10T08:13:03.948Z,72.31
2019-05-10T08:14:06.258Z,71.64
2019-05-10T08:15:03.874Z,70.92
2019-05-10T08:16:09.854Z,70.25
2019-05-10T08:17:06.229Z,70.44
2019-05-10T08:18:25.529Z,72.34
2019-05-10T08:19:03.735Z,71.58
2019-05-10T08:20:03.712Z,74.73
2019-05-10T08:21:20.861Z,74.35
2019-05-10T08:22:04.585Z,74.16
2019-05-10T08:23:03.600Z,73.39
2019-05-10T08:24:24.566Z,73.39
2019-05-10T08:25:03.547Z,74.73
2019-05-10T08:26:04.555Z,74.25
2019-05-10T08:27:10.350Z,74.35
2019-05-10T08:28:05.562Z,73.33
2019-05-10T08:29:07.705Z,75.91
2019-05-10T08:30:28.939Z,75.53
2019-05-10T08:31:03.327Z,75.91
2019-05-10T08:32:03.301Z,75.81
2019-05-10T08:33:09.294Z,76.20
2019-05-10T08:34:03.242Z,76.10
2019-05-10T08:35:05.474Z,78.58
2019-05-10T08:36:24.167Z,80.11
2019-05-10T08:37:03.137Z,78.77
2019-05-10T08:38:04.590Z,79.06
2019-05-10T08:39:09.994Z,78.77
2019-05-10T08:40:03.269Z,81.35
2019-05-10T08:41:08.255Z,79.44
2019-05-10T08:42:38.062Z,81.35
2019-05-10T08:43:06.614Z,79.35
2019-05-10T08:44:04.923Z,78.58
2019-05-10T08:45:05.326Z,80.24
2019-05-10T08:46:02.846Z,82.15
2019-05-10T08:47:02.803Z,82.82
2019-05-10T08:48:23.757Z,83.54
2019-05-10T08:49:02.727Z,80.68
2019-05-10T08:50:18.490Z,81.06
2019-05-10T08:51:06.319Z,79.48
2019-05-10T08:52:12.252Z,82.63
2019-05-10T08:54:07.039Z,80.77
2019-05-10T08:55:06.991Z,79.96
2019-05-10T08:56:07.498Z,79.96
2019-05-10T08:57:06.919Z,82.53
2019-05-10T08:58:06.884Z,80.15
2019-05-10T08:59:09.551Z,80.43
2019-05-10T09:00:08.737Z,80.91
2019-05-10T09:01:20.407Z,80.77
2019-05-10T09:02:06.752Z,80.58
2019-05-10T09:03:13.415Z,79.82
2019-05-10T09:04:08.993Z,80.77
2019-05-10T09:05:06.644Z,80.58
2019-05-10T09:06:11.517Z,79.63
2019-05-10T09:07:06.583Z,80.11
2019-05-10T09:08:13.561Z,79.96
2019-05-10T09:09:08.443Z,79.48
2019-05-10T09:10:09.476Z,78.43
2019-05-10T09:11:07.145Z,79.10
2019-05-10T09:12:09.014Z,84.44
2019-05-10T09:13:06.380Z,82.15
2019-05-10T09:14:06.344Z,82.24
2019-05-10T09:15:10.030Z,82.53
2019-05-10T09:16:06.281Z,81.67
2019-05-10T09:17:06.249Z,80.81
2019-05-10T09:18:07.583Z,80.81
2019-05-10T09:19:06.199Z,84.44
2019-05-10T09:20:06.158Z,82.63
2019-05-10T09:21:08.727Z,82.53
2019-05-10T09:22:06.083Z,83.67
2019-05-10T09:23:08.585Z,84.01
2019-05-10T09:24:06.521Z,82.15
2019-05-10T09:25:05.994Z,82.87
2019-05-10T09:26:10.597Z,83.06
2019-05-10T09:27:05.914Z,82.63
2019-05-10T09:28:14.624Z,83.48
2019-05-10T09:29:05.845Z,83.44
2019-05-10T09:30:08.265Z,82.06
2019-05-10T09:31:17.139Z,83.73
2019-05-10T09:32:06.561Z,83.64
2019-05-10T09:33:10.429Z,82.87
2019-05-10T09:34:05.687Z,81.44
2019-05-10T09:35:09.354Z,82.87
2019-05-10T09:36:05.618Z,82.11
2019-05-10T09:37:08.282Z,81.63
2019-05-10T09:38:05.550Z,83.16
2019-05-10T09:39:09.327Z,81.44
2019-05-10T09:40:10.027Z,80.68
2019-05-10T09:41:05.452Z,80.87
2019-05-10T09:42:09.224Z,81.15
2019-05-10T09:43:09.667Z,81.54
2019-05-10T09:44:05.347Z,83.54
2019-05-10T09:45:05.328Z,79.82
2019-05-10T09:46:05.285Z,80.30
2019-05-10T09:47:05.252Z,82.83
2019-05-10T09:48:05.212Z,80.83
2019-05-10T09:49:14.714Z,80.07
2019-05-10T09:50:05.141Z,80.83
2019-05-10T09:51:05.107Z,79.88
2019-05-10T09:52:12.563Z,78.83
2019-05-10T09:53:07.336Z,78.54
2019-05-10T09:54:07.443Z,79.59
2019-05-10T09:55:12.419Z,80.54
2019-05-10T09:56:04.940Z,78.83
2019-05-10T09:57:04.928Z,78.92
2019-05-10T09:58:04.887Z,78.44
2019-05-10T09:59:04.844Z,78.44
2019-05-10T10:00:07.220Z,79.49
2019-05-10T10:01:14.701Z,82.35
2019-05-10T10:02:10.635Z,81.49
2019-05-10T10:03:04.708Z,79.44
2019-05-10T10:04:04.682Z,80.01
2019-05-10T10:05:04.642Z,80.39
2019-05-10T10:06:07.692Z,81.92
2019-05-10T10:07:04.593Z,82.30
2019-05-10T10:08:09.069Z,80.68
2019-05-10T10:09:07.273Z,78.67
2019-05-10T10:10:04.477Z,77.67
2019-05-10T10:11:11.532Z,77.67
2019-05-10T10:12:04.412Z,85.01
2019-05-10T10:13:11.522Z,87.30
2019-05-10T10:14:04.341Z,84.16
2019-05-10T10:15:04.308Z,83.48
2019-05-10T10:16:09.192Z,84.92
2019-05-10T10:17:04.242Z,83.11
2019-05-10T10:18:04.209Z,84.00
2019-05-10T10:19:04.169Z,83.72
2019-05-10T10:20:04.166Z,85.34
2019-05-10T10:21:04.102Z,86.49
2019-05-10T10:22:05.686Z,85.53
2019-05-10T10:23:04.037Z,83.14
2019-05-10T10:24:12.203Z,84.20
2019-05-10T10:25:03.978Z,86.39
2019-05-10T10:26:03.945Z,86.30
2019-05-10T10:27:03.906Z,85.44
2019-05-10T10:28:08.246Z,87.82
2019-05-10T10:29:03.851Z,84.96
2019-05-10T10:30:06.498Z,87.82
2019-05-10T10:31:05.349Z,86.68
2019-05-10T10:32:03.744Z,86.01
2019-05-10T10:33:05.843Z,86.77
2019-05-10T10:34:03.678Z,86.49
2019-05-10T10:35:03.648Z,86.10
2019-05-10T10:36:07.633Z,85.82
2019-05-10T10:37:03.587Z,84.86
2019-05-10T10:38:05.656Z,85.44
2019-05-10T10:39:03.514Z,85.15
2019-05-10T10:40:05.365Z,86.20
2019-05-10T10:41:03.478Z,86.49
2019-05-10T10:42:08.825Z,85.53
2019-05-10T10:43:03.396Z,85.25
2019-05-10T10:44:03.366Z,85.34
2019-05-10T10:45:03.326Z,84.96
2019-05-10T10:46:03.298Z,85.58
2019-05-10T10:47:03.261Z,88.01
2019-05-10T10:48:10.651Z,86.72
2019-05-10T10:49:05.346Z,85.00
2019-05-10T10:50:07.809Z,85.58
2019-05-10T10:51:03.129Z,84.72
2019-05-10T10:52:05.678Z,83.76
2019-05-10T10:53:03.060Z,86.72
2019-05-10T10:54:03.040Z,85.29
2019-05-10T10:55:05.664Z,85.48
2019-05-10T10:56:03.955Z,85.77
2019-05-10T10:57:02.937Z,87.10
2019-05-10T10:58:02.906Z,86.82
2019-05-10T10:59:02.871Z,85.77
2019-05-10T11:00:02.832Z,86.53
2019-05-10T11:01:10.530Z,84.91
2019-05-10T11:02:29.027Z,85.86
2019-05-10T11:03:02.750Z,85.48
2019-05-10T11:04:08.149Z,85.48
2019-05-10T11:05:02.680Z,85.00
2019-05-10T11:06:02.641Z,86.34
2019-05-10T11:07:10.538Z,84.81
2019-05-10T11:08:02.582Z,85.67
2019-05-10T11:09:02.550Z,86.43
2019-05-10T11:10:14.758Z,86.53
2019-05-10T11:11:02.476Z,84.91
2019-05-10T11:12:02.447Z,84.81
2019-05-10T11:13:10.012Z,86.58
2019-05-10T11:14:07.371Z,85.34
2019-05-10T11:15:02.353Z,86.01
2019-05-10T11:16:09.721Z,85.15
2019-05-10T11:17:02.277Z,86.10
2019-05-10T11:18:02.258Z,85.05
2019-05-10T11:19:03.890Z,84.67
2019-05-10T11:20:02.190Z,85.44
2019-05-10T11:21:02.250Z,84.10
2019-05-10T11:22:09.340Z,84.43
2019-05-10T11:23:02.096Z,85.67
2019-05-10T11:24:02.058Z,86.34
2019-05-10T11:25:09.218Z,85.19
2019-05-10T11:26:01.983Z,84.81
2019-05-10T11:27:01.962Z,85.00
2019-05-10T11:28:02.055Z,85.29
2019-05-10T11:29:01.903Z,86.24
2019-05-10T11:30:01.864Z,84.14
2019-05-10T11:31:01.823Z,85.10
2019-05-10T11:32:15.176Z,84.91
2019-05-10T11:33:01.764Z,86.72
2019-05-10T11:34:01.752Z,86.63
2019-05-10T11:35:05.275Z,86.43
2019-05-10T11:36:04.130Z,87.91
2019-05-10T11:37:01.635Z,86.86
2019-05-10T11:38:06.479Z,86.57
2019-05-10T11:39:01.825Z,85.62
2019-05-10T11:40:01.894Z,88.29
2019-05-10T11:41:02.167Z,85.85
2019-05-10T11:42:06.965Z,85.75
2019-05-10T11:43:01.639Z,87.19
2019-05-10T11:44:07.100Z,85.09
2019-05-10T11:45:01.377Z,85.18
2019-05-10T11:46:01.348Z,84.89
2019-05-10T11:47:01.662Z,85.18
2019-05-10T11:48:02.218Z,86.14
2019-05-10T11:49:01.884Z,84.70
2019-05-10T11:50:06.328Z,84.42
2019-05-10T11:51:05.588Z,84.70
2019-05-10T11:52:01.805Z,84.84
2019-05-10T11:53:01.137Z,84.46
2019-05-10T11:54:01.090Z,84.36
2019-05-10T11:55:01.308Z,83.50
2019-05-10T11:56:02.037Z,82.83
2019-05-10T11:57:06.537Z,84.08
2019-05-10T11:58:07.506Z,84.02
2019-05-10T11:59:02.589Z,83.64
2019-05-10T12:00:00.901Z,83.39
2019-05-10T12:01:12.834Z,83.78
2019-05-10T12:02:02.936Z,82.24
2019-05-10T12:03:07.749Z,81.57
2019-05-10T12:04:02.108Z,82.00
2019-05-10T12:05:11.006Z,82.96
2019-05-10T12:07:02.711Z,82.00
2019-05-10T12:08:02.187Z,82.57
2019-05-10T12:09:03.814Z,82.19
2019-05-10T12:10:08.426Z,82.09
2019-05-10T12:11:12.413Z,81.71
2019-05-10T12:12:03.421Z,81.13
2019-05-10T12:13:11.209Z,81.52
2019-05-10T12:14:02.405Z,80.43
2019-05-10T12:15:04.447Z,81.43
2019-05-10T12:16:00.422Z,81.04
2019-05-10T12:17:05.644Z,80.56
2019-05-10T12:18:04.516Z,81.20
2019-05-10T12:19:10.409Z,81.86
2019-05-10T12:20:02.475Z,80.66
2019-05-10T12:21:08.910Z,80.60
2019-05-10T12:22:04.709Z,82.71
2019-05-10T12:23:03.409Z,80.32
2019-05-10T12:24:10.489Z,82.27
2019-05-10T12:25:27.096Z,81.12
2019-05-10T12:26:16.201Z,82.19
2019-05-10T12:27:12.871Z,80.11
2019-05-10T12:27:18.744Z,80.40
2019-05-10T12:28:01.241Z,79.11
2019-05-10T12:29:11.554Z,78.92
2019-05-10T12:30:03.236Z,79.72
2019-05-10T12:31:01.402Z,78.77
2019-05-10T12:31:59.951Z,79.44
2019-05-10T12:33:08.796Z,79.72
2019-05-10T12:34:08.737Z,79.05
2019-05-10T12:35:01.511Z,78.47
2019-05-10T12:35:59.829Z,79.38
2019-05-10T12:37:03.797Z,75.92
2019-05-10T12:38:01.630Z,76.98
2019-05-10T12:39:01.816Z,77.78
2019-05-10T12:40:09.049Z,72.69
2019-05-10T12:41:01.330Z,72.31
2019-05-10T12:41:59.659Z,72.75
2019-05-10T12:43:00.702Z,73.14
2019-05-10T12:44:03.936Z,72.37
2019-05-10T12:45:01.269Z,76.88
2019-05-10T12:45:59.552Z,74.68
2019-05-10T12:47:01.260Z,74.68
2019-05-10T12:48:01.262Z,74.48
2019-05-10T12:49:02.067Z,69.97
2019-05-10T12:50:01.906Z,71.98
2019-05-10T12:51:04.926Z,73.62
2019-05-10T12:51:59.372Z,73.62
2019-05-10T12:53:12.620Z,74.19
2019-05-10T12:53:59.323Z,70.26
2019-05-10T12:54:59.292Z,73.30